Time;durP1;ratioP1;P1;durP2;ratioP2;P2;SDS_P1;SDS_P2;PMS_P1;PMS_P2;Temp;Humidity;BMP_temperature;BMP_pressure;BME280_temperature;BME280_humidity;BME280_pressure;Samples;Min_cycle;Max_cycle;Signal;HPM_P1;HPM_P2
2021/10/28 04:05:57;;;;;;;57.03;35.70;;;6.60;99.90;;;;;;5015059;28;20424;-72
2021/10/28 04:17:02;;;;;;;50.67;33.30;;;6.70;99.90;;;;;;5014692;28;20416;-72
2021/10/28 04:19:52;;;;;;;46.37;32.60;;;6.70;99.90;;;;;;5014826;28;20788;-72
2021/10/28 04:30:46;;;;;;;53.23;34.83;;;6.70;99.90;;;;;;5014595;28;20496;-72
2021/10/28 04:33:13;;;;;;;52.37;34.87;;;6.60;99.90;;;;;;5014718;28;20457;-73
2021/10/28 04:35:42;;;;;;;54.73;33.40;;;6.60;99.90;;;;;;5014618;28;20457;-73
2021/10/28 04:38:10;;;;;;;46.60;32.33;;;6.60;99.90;;;;;;5014495;28;20507;-73
2021/10/28 04:40:37;;;;;;;53.20;34.53;;;6.60;99.90;;;;;;5014339;28;20473;-71
2021/10/28 04:43:04;;;;;;;51.77;33.70;;;6.70;99.90;;;;;;5014402;28;20453;-71
2021/10/28 04:45:31;;;;;;;52.47;35.87;;;6.60;99.90;;;;;;5014500;28;20460;-71
2021/10/28 04:47:57;;;;;;;51.90;34.30;;;6.60;99.90;;;;;;5014287;28;20457;-72
2021/10/28 04:50:24;;;;;;;57.03;35.43;;;6.60;99.90;;;;;;5014236;28;20457;-71
2021/10/28 04:52:52;;;;;;;52.37;34.73;;;6.60;99.90;;;;;;5014398;28;20809;-71
2021/10/28 04:55:19;;;;;;;55.57;34.10;;;6.60;99.90;;;;;;5014442;28;20444;-71
2021/10/28 04:57:46;;;;;;;32.60;22.50;;;6.60;99.90;;;;;;5014241;28;20469;-71
2021/10/28 05:00:13;;;;;;;36.00;24.23;;;7.10;99.90;;;;;;5014001;28;20522;-71
2021/10/28 05:02:39;;;;;;;29.90;24.43;;;7.80;99.90;;;;;;5014228;28;20456;-70
2021/10/28 05:05:07;;;;;;;30.50;22.93;;;8.40;99.90;;;;;;5014024;28;20453;-70
2021/10/28 05:07:33;;;;;;;28.03;20.80;;;8.80;99.90;;;;;;5014040;28;20460;-70
2021/10/28 05:10:03;;;;;;;28.77;24.43;;;9.10;99.90;;;;;;5014179;28;20555;-70
2021/10/28 05:12:29;;;;;;;29.13;22.53;;;9.20;99.90;;;;;;5015797;28;20816;-70
2021/10/28 05:14:56;;;;;;;30.70;23.87;;;9.10;99.90;;;;;;5017871;28;20460;-70
2021/10/28 05:17:23;;;;;;;31.67;23.23;;;8.90;99.90;;;;;;5018147;28;20457;-70
2021/10/28 05:19:50;;;;;;;29.07;24.00;;;8.70;99.90;;;;;;5018213;28;20453;-70
2021/10/28 05:22:17;;;;;;;37.17;28.03;;;8.20;99.90;;;;;;5017684;28;20808;-70
2021/10/28 05:24:44;;;;;;;41.37;24.87;;;8.00;99.90;;;;;;5017665;28;20459;-70
2021/10/28 05:27:13;;;;;;;39.33;25.27;;;7.70;99.90;;;;;;5017372;28;20459;-70
2021/10/28 05:29:39;;;;;;;42.43;30.90;;;7.40;99.90;;;;;;5017748;28;20457;-70
2021/10/28 05:32:07;;;;;;;41.87;31.50;;;7.20;99.90;;;;;;5017750;28;20484;-70
2021/10/28 05:34:36;;;;;;;45.87;33.37;;;7.00;99.90;;;;;;5017453;28;20456;-70
2021/10/28 05:37:03;;;;;;;45.90;33.20;;;6.70;99.90;;;;;;5017786;28;20453;-70
2021/10/28 05:39:29;;;;;;;52.70;35.13;;;6.60;99.90;;;;;;5017579;28;20456;-70
2021/10/28 05:41:56;;;;;;;53.53;35.70;;;6.30;99.90;;;;;;5017963;28;20477;-69
2021/10/28 05:44:24;;;;;;;55.53;34.40;;;6.30;99.90;;;;;;5017548;28;20950;-69
2021/10/28 05:46:51;;;;;;;57.30;37.60;;;6.20;99.90;;;;;;5017428;28;20463;-69
2021/10/28 05:49:18;;;;;;;60.40;37.07;;;6.10;99.90;;;;;;5016986;28;20445;-68
2021/10/28 05:51:46;;;;;;;53.07;34.93;;;6.10;99.90;;;;;;5017343;28;20484;-70
2021/10/28 05:54:13;;;;;;;58.63;35.07;;;6.20;99.90;;;;;;5017607;28;20460;-70
2021/10/28 05:56:40;;;;;;;51.10;34.80;;;6.20;99.90;;;;;;5017090;28;20492;-70
2021/10/28 05:59:07;;;;;;;44.70;34.13;;;6.30;99.90;;;;;;5017124;28;20467;-70
2021/10/28 06:01:35;;;;;;;47.73;35.97;;;6.30;99.90;;;;;;5016713;28;20519;-70
2021/10/28 06:04:02;;;;;;;46.90;34.10;;;6.30;99.90;;;;;;5016751;28;20801;-70
2021/10/28 06:06:28;;;;;;;47.57;33.70;;;6.30;99.90;;;;;;5016773;28;20457;-71
2021/10/28 06:08:55;;;;;;;46.23;33.77;;;6.30;99.90;;;;;;5016915;28;20452;-71
2021/10/28 06:11:22;;;;;;;70.57;34.93;;;6.30;99.90;;;;;;5016522;28;20503;-70
2021/10/28 06:13:49;;;;;;;70.30;34.37;;;6.30;99.90;;;;;;5016661;28;20463;-70
2021/10/28 06:16:16;;;;;;;63.50;35.70;;;6.30;99.90;;;;;;5016562;28;20820;-69
2021/10/28 06:18:46;;;;;;;53.83;34.43;;;6.40;99.90;;;;;;5016591;28;20457;-72
2021/10/28 06:21:13;;;;;;;117.77;34.70;;;6.40;99.90;;;;;;5016033;28;20987;-70
2021/10/28 06:23:41;;;;;;;89.83;34.93;;;6.40;99.90;;;;;;5016179;28;20460;-70
2021/10/28 06:26:09;;;;;;;323.77;40.60;;;6.50;99.90;;;;;;5016396;28;20932;-70
2021/10/28 06:28:36;;;;;;;405.17;43.73;;;6.50;99.90;;;;;;5016697;28;20452;-69
2021/10/28 06:31:02;;;;;;;302.63;43.13;;;6.50;99.90;;;;;;5016571;28;20488;-71
2021/10/28 06:33:33;;;;;;;332.83;43.17;;;6.50;99.90;;;;;;5016450;28;20457;-71
2021/10/28 06:36:03;;;;;;;577.40;47.90;;;6.60;99.90;;;;;;5016175;28;20495;-72
2021/10/28 06:38:35;;;;;;;58.23;35.60;;;6.60;99.90;;;;;;5016568;28;20511;-71
2021/10/28 06:41:03;;;;;;;120.03;37.20;;;6.60;99.90;;;;;;5016308;28;20476;-71
2021/10/28 06:43:31;;;;;;;119.60;34.57;;;6.60;99.90;;;;;;5016308;28;20511;-72
2021/10/28 06:45:58;;;;;;;91.40;37.30;;;6.60;99.90;;;;;;5015995;28;20434;-70
2021/10/28 06:48:25;;;;;;;118.10;37.10;;;6.70;99.90;;;;;;5015955;28;20492;-70
2021/10/28 06:50:54;;;;;;;82.60;35.50;;;6.70;99.90;;;;;;5015862;28;20477;-72
2021/10/28 06:53:25;;;;;;;120.27;37.73;;;6.70;99.90;;;;;;5016044;28;20453;-71
2021/10/28 06:55:59;;;;;;;371.07;42.67;;;6.80;99.90;;;;;;5015977;28;20464;-72
2021/10/28 07:03:55;;;;;;;288.17;41.10;;;6.80;99.90;;;;;;5016680;28;20413;-72
2021/10/28 07:06:24;;;;;;;398.80;43.07;;;6.80;99.90;;;;;;5017504;28;20437;-72
2021/10/28 07:08:56;;;;;;;389.07;41.80;;;6.80;99.90;;;;;;5016154;28;20528;-71
2021/10/28 07:11:26;;;;;;;490.03;40.67;;;6.90;99.90;;;;;;5016725;28;20983;-71
2021/10/28 07:13:53;;;;;;;272.57;38.53;;;6.80;99.90;;;;;;5016505;28;20800;-71
2021/10/28 07:16:27;;;;;;;447.07;43.83;;;6.80;99.90;;;;;;5016419;28;20870;-71
2021/10/28 07:18:59;;;;;;;351.50;42.10;;;6.80;99.90;;;;;;5017588;28;20816;-71
2021/10/28 07:21:39;;;;;;;339.73;43.90;;;6.80;99.90;;;;;;5021920;28;20527;-71
2021/10/28 07:24:26;;;;;;;282.60;35.37;;;6.90;99.90;;;;;;5015742;28;20482;-71
2021/10/28 07:27:09;;;;;;;200.50;34.17;;;7.00;99.90;;;;;;5016016;28;20437;-71
2021/10/28 07:32:32;;;;;;;134.43;31.20;;;7.00;99.90;;;;;;5014920;28;20472;-72
2021/10/28 07:35:14;;;;;;;176.57;30.67;;;7.20;99.90;;;;;;5014940;28;20487;-71
2021/10/28 08:00:11;;;;;;;15.90;14.50;;;14.70;99.90;;;;;;4954426;29;21112;-72
2021/10/28 08:13:56;;;;;;;15.40;14.03;;;16.80;99.90;;;;;;5014731;28;20911;-73
2021/10/28 08:16:43;;;;;;;16.70;14.90;;;17.40;99.90;;;;;;5014746;28;20788;-73
2021/10/28 08:19:20;;;;;;;15.87;14.57;;;18.00;99.90;;;;;;5017848;28;20433;-72
2021/10/28 08:21:49;;;;;;;14.37;13.17;;;18.60;99.90;;;;;;5014544;28;20495;-72
2021/10/28 08:29:48;;;;;;;15.77;14.60;;;20.40;97.80;;;;;;5014665;28;20425;-72
2021/10/28 08:32:16;;;;;;;16.47;15.00;;;20.60;96.70;;;;;;5014082;28;20984;-72
2021/10/28 08:34:44;;;;;;;14.87;13.60;;;20.20;95.80;;;;;;5014513;28;20529;-72
2021/10/28 08:37:14;;;;;;;14.83;13.53;;;20.80;94.60;;;;;;5013962;28;20441;-72
2021/10/28 08:39:44;;;;;;;14.47;13.47;;;21.40;93.30;;;;;;5014577;28;20441;-72
2021/10/28 08:42:13;;;;;;;16.43;15.13;;;21.60;92.00;;;;;;5014158;28;20479;-71
2021/10/28 08:44:41;;;;;;;15.07;13.77;;;21.40;91.20;;;;;;5013747;28;20460;-72
2021/10/28 08:47:10;;;;;;;14.43;13.33;;;21.30;91.70;;;;;;5013670;28;20461;-71
2021/10/28 08:49:42;;;;;;;14.67;13.57;;;21.90;91.10;;;;;;5014081;28;20449;-73
2021/10/28 08:52:25;;;;;;;15.77;14.57;;;22.10;88.40;;;;;;5016096;28;20568;-72
2021/10/28 08:55:04;;;;;;;14.63;13.53;;;21.90;89.30;;;;;;5016537;28;20524;-73
2021/10/28 09:25:46;;;;;;;14.00;12.90;;;23.00;79.30;;;;;;5013800;28;20966;-72
2021/10/28 09:28:30;;;;;;;14.67;13.37;;;23.10;78.70;;;;;;5013852;28;20750;-72
2021/10/28 09:31:07;;;;;;;14.17;12.90;;;23.20;78.40;;;;;;5013749;28;20477;-72
2021/10/28 09:33:42;;;;;;;14.43;13.13;;;23.30;77.30;;;;;;5013849;28;20475;-72
2021/10/28 09:45:00;;;;;;;14.93;13.73;;;23.90;75.80;;;;;;5013922;28;21019;-72
2021/10/28 09:47:36;;;;;;;16.17;14.67;;;24.10;75.40;;;;;;5013307;28;20876;-72
2021/10/28 09:50:10;;;;;;;16.33;14.87;;;23.90;75.30;;;;;;5013672;28;20456;-72
2021/10/28 09:52:48;;;;;;;16.60;15.20;;;23.10;75.30;;;;;;5013582;28;20484;-72
2021/10/28 09:58:23;;;;;;;16.30;14.70;;;23.40;77.50;;;;;;4979394;28;20447;-72
2021/10/28 10:00:50;;;;;;;16.00;14.70;;;24.40;75.20;;;;;;5017267;28;20480;-72
2021/10/28 10:03:22;;;;;;;16.40;15.10;;;23.60;76.40;;;;;;5016997;28;20491;-72
2021/10/28 10:05:55;;;;;;;17.20;15.70;;;23.80;75.90;;;;;;5017150;28;20497;-72
2021/10/28 10:08:24;;;;;;;16.43;15.03;;;24.30;74.20;;;;;;5017119;28;20436;-72
2021/10/28 10:10:52;;;;;;;17.60;16.20;;;23.50;75.80;;;;;;5016782;28;20523;-72
2021/10/28 10:13:22;;;;;;;17.30;15.97;;;24.10;74.50;;;;;;5017232;28;20528;-69
2021/10/28 10:15:52;;;;;;;18.53;16.80;;;24.80;73.00;;;;;;5025842;28;20453;-69
2021/10/28 10:18:21;;;;;;;16.43;15.17;;;23.70;74.10;;;;;;5020790;28;20460;-69
2021/10/28 10:20:50;;;;;;;16.90;15.60;;;24.00;73.60;;;;;;5016349;28;20480;-70
2021/10/28 10:23:31;;;;;;;15.50;14.30;;;24.60;73.70;;;;;;5016714;28;20449;-69
2021/10/28 10:26:21;;;;;;;16.47;15.07;;;24.60;72.80;;;;;;5018773;28;20834;-69
2021/10/28 11:22:03;;;;;;;20.47;18.57;;;17.80;96.30;;;;;;5015273;28;20491;-68
2021/10/28 11:32:56;;;;;;;19.60;17.80;;;17.70;97.40;;;;;;5015064;28;20472;-70
2021/10/28 12:19:48;;;;;;;19.70;17.90;;;18.60;97.80;;;;;;5018452;28;20444;-68
2021/10/28 12:23:45;;;;;;;19.20;17.50;;;18.60;99.10;;;;;;4984140;28;21020;-72
2021/10/28 12:46:14;;;;;;;19.67;17.80;;;18.70;99.90;;;;;;4954204;29;20495;-73
2021/10/28 12:51:36;;;;;;;18.73;17.03;;;18.50;99.90;;;;;;4988031;28;20467;-73
2021/10/28 13:06:18;;;;;;;19.60;17.80;;;19.00;99.10;;;;;;4993363;28;20460;-73
2021/10/28 13:50:03;;;;;;;21.70;18.60;;;18.50;99.90;;;;;;5017451;28;20495;-71
2021/10/28 13:53:02;;;;;;;20.53;18.53;;;18.30;99.90;;;;;;5017326;28;20519;-71
2021/10/28 14:15:29;;;;;;;20.40;18.47;;;18.60;99.90;;;;;;5026804;28;20416;-70
2021/10/28 14:20:54;;;;;;;18.40;16.70;;;18.10;99.50;;;;;;5006315;28;20519;-69
2021/10/28 14:23:37;;;;;;;20.00;18.00;;;18.10;99.90;;;;;;5017005;28;20438;-69
2021/10/28 14:37:39;;;;;;;20.77;18.80;;;17.70;99.90;;;;;;5016233;28;20451;-69
2021/10/28 15:02:20;;;;;;;22.50;20.40;;;16.80;99.90;;;;;;5018636;28;20974;-71
2021/10/28 15:29:33;;;;;;;20.90;18.90;;;16.00;99.90;;;;;;5016316;28;20417;-72
2021/10/28 15:32:30;;;;;;;22.00;19.70;;;15.90;99.90;;;;;;5015257;28;20531;-73
2021/10/28 15:37:54;;;;;;;23.37;20.07;;;15.80;99.90;;;;;;5015541;28;20435;-75
2021/10/28 15:40:29;;;;;;;21.17;19.00;;;15.80;99.90;;;;;;5015319;28;20436;-74
2021/10/28 15:43:35;;;;;;;21.13;19.00;;;15.70;99.90;;;;;;5015249;28;20978;-74
2021/10/28 15:54:38;;;;;;;20.13;18.03;;;15.30;99.90;;;;;;5013608;28;20552;-72
2021/10/28 16:21:52;;;;;;;22.90;20.53;;;14.20;99.90;;;;;;5014839;28;20483;-73
2021/10/28 16:24:20;;;;;;;22.20;20.00;;;14.10;99.90;;;;;;5014804;28;20453;-72
2021/10/28 16:26:47;;;;;;;21.87;19.57;;;14.10;99.90;;;;;;5014887;28;20437;-72
2021/10/28 16:29:14;;;;;;;20.80;18.80;;;14.10;99.90;;;;;;5014769;28;20504;-72
2021/10/28 16:31:43;;;;;;;23.20;19.80;;;14.00;99.90;;;;;;5014774;28;20472;-70
2021/10/28 16:34:10;;;;;;;21.57;19.37;;;13.90;99.90;;;;;;5018839;28;20946;-73
2021/10/28 16:36:37;;;;;;;22.33;18.93;;;13.80;99.90;;;;;;5015496;28;20459;-72
2021/10/28 16:39:08;;;;;;;20.93;18.83;;;13.80;99.90;;;;;;5014071;28;20468;-72
2021/10/28 16:41:36;;;;;;;21.70;19.53;;;13.80;99.90;;;;;;5014151;28;20971;-72
2021/10/28 16:44:03;;;;;;;21.77;19.57;;;13.70;99.90;;;;;;5014465;28;20942;-72
2021/10/28 16:46:30;;;;;;;24.17;21.47;;;13.70;99.90;;;;;;5014302;28;20971;-72
2021/10/28 16:48:58;;;;;;;23.07;20.60;;;13.60;99.90;;;;;;5015445;28;20449;-73
2021/10/28 16:51:25;;;;;;;22.30;20.10;;;13.60;99.90;;;;;;5014727;28;20480;-72
2021/10/28 16:53:52;;;;;;;23.03;20.80;;;13.50;99.90;;;;;;5014109;28;20511;-72
2021/10/28 16:56:19;;;;;;;23.50;21.10;;;13.50;99.90;;;;;;5014347;28;20548;-71
2021/10/28 16:58:46;;;;;;;22.97;20.57;;;13.40;99.90;;;;;;5013836;28;20461;-72
2021/10/28 17:01:14;;;;;;;23.37;20.80;;;13.40;99.90;;;;;;5014006;28;20488;-71
2021/10/28 17:03:41;;;;;;;22.17;19.87;;;13.30;99.90;;;;;;5014600;28;20449;-72
2021/10/28 17:06:11;;;;;;;21.97;18.90;;;13.30;99.90;;;;;;5013925;28;20560;-70
2021/10/28 17:08:38;;;;;;;23.73;21.30;;;13.30;99.90;;;;;;5018215;28;20535;-71
2021/10/28 17:11:06;;;;;;;24.40;20.57;;;13.30;99.90;;;;;;5018655;28;20484;-71
2021/10/28 17:13:33;;;;;;;25.20;21.07;;;13.30;99.90;;;;;;5018219;28;20498;-71
2021/10/28 17:16:00;;;;;;;24.03;21.53;;;13.30;99.90;;;;;;5018141;28;20944;-72
2021/10/28 17:18:27;;;;;;;22.37;20.00;;;13.30;99.90;;;;;;5018116;28;20456;-71
2021/10/28 17:20:55;;;;;;;22.00;19.70;;;13.30;99.90;;;;;;5018393;28;20476;-72
2021/10/28 17:23:31;;;;;;;23.47;20.23;;;13.30;99.90;;;;;;5017912;28;20877;-70
2021/10/28 17:25:59;;;;;;;22.20;20.10;;;13.30;99.90;;;;;;5017892;28;20478;-72
2021/10/28 17:28:26;;;;;;;23.90;21.40;;;13.30;99.90;;;;;;5018158;28;20484;-73
2021/10/28 17:30:54;;;;;;;25.07;22.27;;;13.20;99.90;;;;;;5018733;28;20814;-72
2021/10/28 17:33:21;;;;;;;24.67;20.70;;;13.20;99.90;;;;;;5018685;28;20991;-72
2021/10/28 17:35:48;;;;;;;26.50;23.63;;;13.20;99.90;;;;;;5018696;28;20453;-72
2021/10/28 17:38:15;;;;;;;23.73;20.70;;;13.20;99.90;;;;;;5017844;28;20960;-72
2021/10/28 17:40:43;;;;;;;26.03;21.27;;;13.20;99.90;;;;;;5021193;28;20475;-73
2021/10/28 17:43:11;;;;;;;24.67;22.37;;;13.20;99.90;;;;;;5028994;28;20449;-72
2021/10/28 17:45:40;;;;;;;26.37;23.57;;;13.20;99.90;;;;;;5021079;28;20452;-73
2021/10/28 17:48:07;;;;;;;25.60;22.90;;;13.10;99.90;;;;;;5017515;28;20519;-73
2021/10/28 17:50:34;;;;;;;25.90;22.10;;;13.10;99.90;;;;;;5016996;28;20951;-72
2021/10/28 17:53:01;;;;;;;22.27;20.00;;;13.10;99.90;;;;;;5017185;28;20452;-73
2021/10/28 17:55:28;;;;;;;23.27;20.87;;;13.10;99.90;;;;;;5017298;28;20460;-71
2021/10/28 17:57:56;;;;;;;22.33;20.03;;;13.10;99.90;;;;;;5017167;28;20463;-71
2021/10/28 18:00:24;;;;;;;21.63;19.57;;;13.10;99.90;;;;;;5016747;28;20456;-72
2021/10/28 18:02:52;;;;;;;22.90;20.47;;;13.10;99.90;;;;;;5017712;28;20805;-72
2021/10/28 18:05:19;;;;;;;23.23;19.50;;;13.10;99.90;;;;;;5018096;28;20457;-72
2021/10/28 18:07:46;;;;;;;20.53;18.33;;;13.00;99.90;;;;;;5019713;28;20460;-71
2021/10/28 18:10:13;;;;;;;21.10;18.90;;;13.00;99.90;;;;;;5017254;28;20456;-72
2021/10/28 18:12:41;;;;;;;19.37;17.47;;;13.00;99.90;;;;;;5017244;28;20472;-71
2021/10/28 18:15:10;;;;;;;20.30;18.20;;;13.00;99.90;;;;;;5017298;28;20551;-71
2021/10/28 18:17:37;;;;;;;25.17;21.37;;;12.90;99.90;;;;;;5017339;28;20788;-72
2021/10/28 18:20:05;;;;;;;22.80;20.40;;;12.90;99.90;;;;;;5016882;28;20456;-72
2021/10/28 18:22:36;;;;;;;22.37;20.27;;;12.80;99.90;;;;;;5017933;28;20477;-71
2021/10/28 18:25:04;;;;;;;23.70;21.30;;;12.80;99.90;;;;;;5018269;28;20853;-73
2021/10/28 18:27:32;;;;;;;25.13;20.67;;;12.70;99.90;;;;;;5017198;28;20448;-72
2021/10/28 18:30:00;;;;;;;23.27;20.77;;;12.70;99.90;;;;;;5017369;28;20433;-71
2021/10/28 18:32:28;;;;;;;18.80;16.80;;;12.60;99.90;;;;;;5016744;28;20477;-72
2021/10/28 18:34:55;;;;;;;21.93;17.40;;;12.50;99.90;;;;;;5017183;28;20473;-72
2021/10/28 18:37:22;;;;;;;23.53;17.10;;;12.50;99.90;;;;;;5016324;28;20789;-71
2021/10/28 18:39:50;;;;;;;19.10;16.60;;;12.30;99.90;;;;;;5016534;28;20445;-72
2021/10/28 18:42:17;;;;;;;17.47;15.87;;;12.30;99.90;;;;;;5016524;28;21003;-72
2021/10/28 18:44:44;;;;;;;16.43;14.73;;;12.20;99.90;;;;;;5016532;28;20448;-72
2021/10/28 18:47:10;;;;;;;17.93;15.00;;;12.10;99.90;;;;;;5016823;28;20460;-71
2021/10/28 18:49:39;;;;;;;16.00;14.50;;;12.00;99.90;;;;;;5016446;28;20468;-71
2021/10/28 18:52:06;;;;;;;16.90;15.10;;;11.90;99.90;;;;;;5015898;28;20834;-71
2021/10/28 18:54:33;;;;;;;17.33;15.40;;;11.80;99.90;;;;;;5016334;28;20856;-71
2021/10/28 18:56:59;;;;;;;18.53;15.87;;;11.80;99.90;;;;;;5016321;28;20464;-72
2021/10/28 18:59:26;;;;;;;17.70;15.80;;;11.70;99.90;;;;;;5016040;28;20540;-71
2021/10/28 19:01:55;;;;;;;19.00;14.90;;;11.70;99.90;;;;;;5016371;28;20489;-72
2021/10/28 19:04:22;;;;;;;19.00;14.80;;;11.60;99.90;;;;;;5016239;28;20453;-71
2021/10/28 19:06:51;;;;;;;19.00;14.30;;;11.50;99.90;;;;;;5016004;28;20456;-70
2021/10/28 19:09:18;;;;;;;15.10;13.50;;;11.40;99.90;;;;;;5015929;28;20452;-71
2021/10/28 19:11:45;;;;;;;17.17;13.93;;;11.30;99.90;;;;;;5015481;28;21006;-71
2021/10/28 19:14:13;;;;;;;16.60;14.90;;;11.20;99.90;;;;;;5015777;28;20472;-72
2021/10/28 19:16:39;;;;;;;16.50;14.83;;;11.10;99.90;;;;;;5015759;28;20457;-71
2021/10/28 19:19:07;;;;;;;17.80;15.90;;;11.00;99.90;;;;;;5015691;28;20460;-71
2021/10/28 19:21:33;;;;;;;17.07;15.27;;;11.00;99.90;;;;;;5015484;28;20500;-72
2021/10/28 19:24:02;;;;;;;17.77;15.53;;;11.00;99.90;;;;;;5015495;28;20458;-71
2021/10/28 19:26:29;;;;;;;18.40;16.27;;;11.00;99.90;;;;;;5015585;28;20859;-72
2021/10/28 19:28:57;;;;;;;16.23;14.47;;;10.90;99.90;;;;;;5015563;28;20449;-71
2021/10/28 19:31:27;;;;;;;16.63;14.87;;;10.90;99.90;;;;;;5014808;28;20551;-70
2021/10/28 19:33:57;;;;;;;13.97;12.47;;;10.90;99.90;;;;;;5015336;28;20822;-70
2021/10/28 19:36:30;;;;;;;14.77;13.37;;;10.80;99.90;;;;;;5015682;28;20477;-71
2021/10/28 19:39:16;;;;;;;15.70;13.87;;;10.70;99.90;;;;;;5017126;28;20456;-71
2021/10/28 19:41:59;;;;;;;14.93;13.33;;;10.70;99.90;;;;;;5015660;28;20850;-72
2021/10/28 19:47:14;;;;;;;13.47;12.20;;;10.50;99.90;;;;;;5015534;28;20433;-70
2021/10/28 19:49:41;;;;;;;14.50;13.00;;;10.50;99.90;;;;;;5018988;28;20448;-72
2021/10/28 19:52:11;;;;;;;14.87;13.33;;;10.40;99.90;;;;;;5024952;28;20483;-71
2021/10/28 19:54:38;;;;;;;14.97;13.37;;;10.40;99.90;;;;;;5015839;28;20480;-70
2021/10/28 19:57:13;;;;;;;14.13;12.83;;;10.30;99.90;;;;;;5015289;28;20880;-71
2021/10/28 19:59:45;;;;;;;14.07;12.73;;;10.30;99.90;;;;;;5014782;28;20979;-70
2021/10/28 20:02:16;;;;;;;13.93;12.50;;;10.20;99.90;;;;;;5014991;28;20491;-71
2021/10/28 20:07:31;;;;;;;14.30;12.80;;;10.20;99.90;;;;;;4990082;28;20448;-71
2021/10/28 20:20:58;;;;;;;17.93;13.33;;;10.10;99.90;;;;;;5014792;28;20463;-71
2021/10/28 20:23:25;;;;;;;13.83;12.33;;;10.10;99.90;;;;;;5014909;28;20448;-71
2021/10/28 20:25:52;;;;;;;14.20;12.50;;;10.10;99.90;;;;;;5015047;28;20795;-71
2021/10/28 20:28:20;;;;;;;15.20;13.13;;;10.10;99.90;;;;;;5015001;28;20452;-71
2021/10/28 20:30:53;;;;;;;14.70;13.20;;;10.00;99.90;;;;;;5022045;28;20472;-72
2021/10/28 20:33:20;;;;;;;14.33;12.87;;;10.00;99.90;;;;;;5027995;28;20441;-71
2021/10/28 20:36:11;;;;;;;15.07;13.53;;;10.00;99.90;;;;;;5017644;28;20567;-70
2021/10/28 20:38:37;;;;;;;14.63;13.13;;;10.00;99.90;;;;;;5015972;28;20440;-71
2021/10/28 20:41:05;;;;;;;16.07;14.40;;;10.00;99.90;;;;;;5016116;28;20483;-70
2021/10/28 20:43:33;;;;;;;13.93;12.60;;;10.00;99.90;;;;;;5015261;28;20453;-71
2021/10/28 20:46:00;;;;;;;14.80;13.30;;;10.00;99.90;;;;;;5015989;28;20452;-70
2021/10/28 20:48:27;;;;;;;14.57;12.00;;;10.00;99.90;;;;;;5016410;28;20449;-70
2021/10/28 20:50:53;;;;;;;15.17;13.60;;;10.00;99.90;;;;;;5015664;28;20476;-71
2021/10/28 20:53:23;;;;;;;15.13;13.53;;;10.00;99.90;;;;;;5016110;28;20449;-70
2021/10/28 20:55:50;;;;;;;14.70;13.17;;;10.00;99.90;;;;;;5015790;28;20530;-71
2021/10/28 20:58:18;;;;;;;16.30;14.53;;;10.00;99.90;;;;;;5015627;28;20810;-71
2021/10/28 21:00:46;;;;;;;16.70;14.87;;;10.00;99.90;;;;;;5014661;28;20858;-71
2021/10/28 21:03:12;;;;;;;17.73;14.77;;;10.00;99.90;;;;;;5014823;28;20437;-70
2021/10/28 21:05:39;;;;;;;18.60;16.67;;;10.00;99.90;;;;;;5014852;28;20475;-71
2021/10/28 21:08:06;;;;;;;17.80;16.00;;;10.00;99.90;;;;;;5014670;28;20456;-71
2021/10/28 21:10:32;;;;;;;18.20;16.27;;;9.90;99.90;;;;;;5014645;28;20480;-71
2021/10/28 21:13:00;;;;;;;17.57;15.53;;;9.90;99.90;;;;;;5014821;28;20867;-71
2021/10/28 21:15:27;;;;;;;19.47;15.97;;;9.90;99.90;;;;;;5014158;28;20991;-71
2021/10/28 21:17:56;;;;;;;19.73;17.57;;;9.90;99.90;;;;;;5014247;28;20459;-70
2021/10/28 21:20:25;;;;;;;22.00;17.27;;;9.90;99.90;;;;;;5014902;28;20452;-72
2021/10/28 21:22:53;;;;;;;18.63;15.93;;;9.90;99.90;;;;;;5014840;28;20456;-70
2021/10/28 21:25:19;;;;;;;20.23;17.10;;;9.80;99.90;;;;;;5014139;28;20967;-71
2021/10/28 21:27:47;;;;;;;18.97;16.97;;;9.80;99.90;;;;;;5014192;28;20464;-70
2021/10/28 21:30:14;;;;;;;19.33;17.33;;;9.80;99.90;;;;;;5014103;28;20452;-71
2021/10/28 21:32:42;;;;;;;19.50;17.47;;;9.70;99.90;;;;;;5014178;28;20837;-71
2021/10/28 21:35:12;;;;;;;21.63;17.67;;;9.60;99.90;;;;;;5013928;28;20997;-72
2021/10/28 21:37:39;;;;;;;21.97;18.90;;;9.60;99.90;;;;;;5014285;28;20476;-72
2021/10/28 21:40:09;;;;;;;22.53;19.83;;;9.50;99.90;;;;;;5013940;28;20449;-71
2021/10/28 21:42:35;;;;;;;22.33;19.90;;;9.50;99.90;;;;;;5013668;28;20811;-71
2021/10/28 21:45:03;;;;;;;25.17;17.73;;;9.50;99.90;;;;;;5014180;28;20437;-72
2021/10/28 21:47:30;;;;;;;20.80;18.60;;;9.50;99.90;;;;;;5014039;28;20475;-71
2021/10/28 21:49:57;;;;;;;24.03;19.60;;;9.60;99.90;;;;;;5014699;28;20797;-71
2021/10/28 21:52:27;;;;;;;22.80;19.20;;;9.70;99.90;;;;;;5014512;28;20476;-72
2021/10/28 21:55:03;;;;;;;21.20;18.00;;;9.60;99.90;;;;;;5016594;28;20461;-72
2021/10/28 21:57:36;;;;;;;23.47;19.47;;;9.70;99.90;;;;;;5018990;28;20440;-71
